createdAt,value
2022-09-15T00:00:12.743Z,60.62
2022-09-15T00:02:39.730Z,60.80
2022-09-15T00:05:07.273Z,59.00
2022-09-15T00:07:34.692Z,59.35
2022-09-15T00:10:01.832Z,59.90
2022-09-15T00:12:29.991Z,60.09
2022-09-15T00:14:56.992Z,60.71
2022-09-15T00:17:24.312Z,61.54
2022-09-15T00:19:51.633Z,62.14
2022-09-15T00:22:20.092Z,62.21
2022-09-15T00:24:49.574Z,62.20
2022-09-15T00:27:17.232Z,61.99
2022-09-15T00:29:44.453Z,62.77
2022-09-15T00:32:11.472Z,63.52
2022-09-15T00:34:38.500Z,63.58
2022-09-15T00:37:05.976Z,63.86
2022-09-15T00:39:32.992Z,63.58
2022-09-15T00:42:00.036Z,62.09
2022-09-15T00:44:35.933Z,61.42
2022-09-15T00:47:19.338Z,61.79
2022-09-15T00:49:49.653Z,61.76
2022-09-15T00:52:43.972Z,62.62
2022-09-15T00:55:35.272Z,62.98
2022-09-15T00:58:09.017Z,63.46
2022-09-15T01:00:37.017Z,63.43
2022-09-15T01:03:04.752Z,63.61
2022-09-15T01:05:51.213Z,63.40
2022-09-15T01:08:28.632Z,63.48
2022-09-15T01:10:56.660Z,63.77
2022-09-15T01:13:23.591Z,63.75
2022-09-15T01:16:11.832Z,64.02
2022-09-15T01:18:50.313Z,64.20
2022-09-15T01:21:20.492Z,63.40
2022-09-15T01:24:01.032Z,63.04
2022-09-15T01:26:34.072Z,63.28
2022-09-15T01:29:06.874Z,62.89
2022-09-15T01:32:34.552Z,62.54
2022-09-15T01:35:11.708Z,62.34
2022-09-15T01:37:46.412Z,62.03
2022-09-15T01:40:16.587Z,62.41
2022-09-15T01:42:45.772Z,62.37
2022-09-15T01:45:20.035Z,63.06
2022-09-15T01:47:50.293Z,63.03
2022-09-15T01:50:22.892Z,63.33
2022-09-15T01:52:55.252Z,63.09
2022-09-15T01:55:28.074Z,63.01
2022-09-15T01:57:55.172Z,63.28
2022-09-15T02:00:22.133Z,63.84
2022-09-15T02:02:58.992Z,64.28
2022-09-15T02:05:41.672Z,63.62
2022-09-15T02:08:25.294Z,63.09
2022-09-15T02:10:57.232Z,62.85
2022-09-15T02:13:43.052Z,63.84
2022-09-15T02:16:20.283Z,64.79
2022-09-15T02:19:12.518Z,64.89
2022-09-15T02:22:11.494Z,64.90
2022-09-15T02:24:44.213Z,64.67
2022-09-15T02:27:22.203Z,64.84
2022-09-15T02:29:50.352Z,65.46
2022-09-15T02:32:19.552Z,64.99
2022-09-15T02:34:51.656Z,64.61
2022-09-15T02:37:22.174Z,64.45
2022-09-15T02:39:53.773Z,64.52
2022-09-15T02:42:29.672Z,64.67
2022-09-15T02:44:57.431Z,64.25
2022-09-15T02:47:25.031Z,64.22
2022-09-15T02:49:52.292Z,64.55
2022-09-15T02:52:19.352Z,64.29
2022-09-15T02:54:46.379Z,64.57
2022-09-15T02:57:16.694Z,64.70
2022-09-15T03:00:02.360Z,64.46
2022-09-15T03:02:30.022Z,64.33
2022-09-15T03:04:57.111Z,64.44
2022-09-15T03:07:25.134Z,63.67
2022-09-15T03:09:52.132Z,63.61
2022-09-15T03:12:19.162Z,63.54
2022-09-15T03:14:47.310Z,63.03
2022-09-15T03:17:14.256Z,61.89
2022-09-15T03:19:41.314Z,61.44
2022-09-15T03:22:09.632Z,61.08
2022-09-15T03:24:39.692Z,61.80
2022-09-15T03:27:06.752Z,62.08
2022-09-15T03:29:33.752Z,62.23
2022-09-15T03:32:00.969Z,63.09
2022-09-15T03:34:27.992Z,63.28
2022-09-15T03:36:54.940Z,63.58
2022-09-15T03:39:21.972Z,63.97
2022-09-15T03:41:48.972Z,62.99
2022-09-15T03:44:16.093Z,62.94
2022-09-15T03:46:43.212Z,62.42
2022-09-15T03:49:10.353Z,63.25
2022-09-15T03:51:37.272Z,64.02
2022-09-15T03:54:04.432Z,64.53
2022-09-15T03:56:33.216Z,65.08
2022-09-15T03:59:02.354Z,64.91
2022-09-15T04:01:30.731Z,65.04
2022-09-15T04:03:58.672Z,65.36
2022-09-15T04:06:27.036Z,65.19
2022-09-15T04:08:54.412Z,64.89
2022-09-15T04:11:22.437Z,65.09
2022-09-15T04:13:50.192Z,65.04
2022-09-15T04:16:20.253Z,65.31
2022-09-15T04:18:47.393Z,65.46
2022-09-15T04:21:17.521Z,64.91
2022-09-15T04:23:45.476Z,65.08
2022-09-15T04:26:34.101Z,64.88
2022-09-15T04:29:04.586Z,64.97
2022-09-15T04:31:33.554Z,64.77
2022-09-15T04:34:01.331Z,64.72
2022-09-15T04:36:29.607Z,64.83
2022-09-15T04:38:56.821Z,64.62
2022-09-15T04:41:25.941Z,64.60
2022-09-15T04:43:53.066Z,64.03
2022-09-15T04:46:21.242Z,64.03
2022-09-15T04:48:49.103Z,63.49
2022-09-15T04:51:20.804Z,64.03
2022-09-15T04:53:48.479Z,64.67
2022-09-15T04:56:19.019Z,64.55
2022-09-15T04:58:54.100Z,64.73
2022-09-15T05:01:30.308Z,64.90
2022-09-15T05:03:57.647Z,64.56
2022-09-15T05:06:27.360Z,64.45
2022-09-15T05:08:56.842Z,63.68
2022-09-15T05:11:24.769Z,63.57
2022-09-15T05:13:52.042Z,64.99
2022-09-15T05:16:24.925Z,65.04
2022-09-15T05:18:54.340Z,65.64
2022-09-15T05:21:23.420Z,65.60
2022-09-15T05:23:52.277Z,65.75
2022-09-15T05:26:21.769Z,65.91
2022-09-15T05:28:48.821Z,65.58
2022-09-15T05:31:27.591Z,65.73
2022-09-15T05:33:55.142Z,66.08
2022-09-15T05:36:25.726Z,66.31
2022-09-15T05:38:55.879Z,66.52
2022-09-15T05:41:23.619Z,66.13
2022-09-15T05:43:51.220Z,66.22
2022-09-15T05:46:19.833Z,65.76
2022-09-15T05:48:47.355Z,64.76
2022-09-15T05:51:15.060Z,64.41
2022-09-15T05:53:42.206Z,64.22
2022-09-15T05:56:13.539Z,63.55
2022-09-15T05:58:42.002Z,63.68
2022-09-15T06:01:13.799Z,63.76
2022-09-15T06:03:41.187Z,63.11
2022-09-15T06:06:08.260Z,62.93
2022-09-15T06:08:51.869Z,62.26
2022-09-15T06:11:24.140Z,62.22
2022-09-15T06:13:51.219Z,62.00
2022-09-15T06:16:21.296Z,62.11
2022-09-15T06:18:49.879Z,62.27
2022-09-15T06:21:21.919Z,62.58
2022-09-15T06:24:00.140Z,62.57
2022-09-15T06:26:28.220Z,62.21
2022-09-15T06:28:56.340Z,61.72
2022-09-15T06:31:24.170Z,61.98
2022-09-15T06:33:53.423Z,62.41
2022-09-15T06:36:22.688Z,62.27
2022-09-15T06:38:50.059Z,62.54
2022-09-15T06:41:17.120Z,63.34
2022-09-15T06:43:45.271Z,64.25
2022-09-15T06:46:13.707Z,64.92
2022-09-15T06:48:44.224Z,64.94
2022-09-15T06:51:15.179Z,64.36
2022-09-15T06:53:42.242Z,65.11
2022-09-15T06:56:12.520Z,64.91
2022-09-15T06:58:41.080Z,64.69
2022-09-15T07:01:10.749Z,65.13
2022-09-15T07:03:39.780Z,65.11
2022-09-15T07:06:08.719Z,65.14
2022-09-15T07:08:35.880Z,65.50
2022-09-15T07:11:02.958Z,64.58
2022-09-15T07:13:30.539Z,63.96
2022-09-15T07:16:00.526Z,63.62
2022-09-15T07:18:27.939Z,63.34
2022-09-15T07:21:03.579Z,63.23
2022-09-15T07:23:30.795Z,63.52
2022-09-15T07:26:09.079Z,64.02
2022-09-15T07:28:36.859Z,63.36
2022-09-15T07:31:08.962Z,62.75
2022-09-15T07:33:37.000Z,62.34
2022-09-15T07:36:08.481Z,62.30
2022-09-15T07:38:38.921Z,61.93
2022-09-15T07:41:17.142Z,62.78
2022-09-15T07:43:52.899Z,62.56
2022-09-15T07:46:22.022Z,62.77
2022-09-15T07:48:50.807Z,62.46
2022-09-15T07:51:18.559Z,62.59
2022-09-15T07:53:47.779Z,61.48
2022-09-15T07:56:17.879Z,61.62
2022-09-15T07:58:46.039Z,60.33
2022-09-15T08:01:14.964Z,60.46
2022-09-15T08:03:43.659Z,58.71
2022-09-15T08:06:11.201Z,58.39
2022-09-15T08:08:39.319Z,58.42
2022-09-15T08:11:09.939Z,58.35
2022-09-15T08:13:37.641Z,57.38
2022-09-15T08:16:06.693Z,57.36
2022-09-15T08:18:34.160Z,57.19
2022-09-15T08:21:07.640Z,56.73
2022-09-15T08:23:34.775Z,56.13
2022-09-15T08:26:02.344Z,56.52
2022-09-15T08:28:29.499Z,55.91
2022-09-15T08:31:05.079Z,54.24
2022-09-15T08:33:32.888Z,52.53
2022-09-15T08:36:08.459Z,53.01
2022-09-15T08:38:35.620Z,52.20
2022-09-15T08:41:30.979Z,51.36
2022-09-15T08:44:19.819Z,50.83
2022-09-15T08:46:50.172Z,50.01
2022-09-15T08:49:47.836Z,49.81
2022-09-15T08:52:43.067Z,49.47
2022-09-15T08:55:52.023Z,49.57
2022-09-15T08:58:28.900Z,49.01
2022-09-15T09:01:53.323Z,48.06
2022-09-15T09:04:29.180Z,47.92
2022-09-15T09:07:14.806Z,48.14
2022-09-15T09:10:10.779Z,48.42
2022-09-15T09:12:46.180Z,48.96
2022-09-15T09:15:32.055Z,47.94
2022-09-15T09:18:31.140Z,47.97
2022-09-15T09:21:24.081Z,47.99
2022-09-15T09:24:06.512Z,48.02
2022-09-15T09:26:37.019Z,47.92
2022-09-15T09:29:18.642Z,47.14
2022-09-15T09:31:51.347Z,47.22
2022-09-15T09:34:44.379Z,47.43
2022-09-15T09:37:15.599Z,47.22
2022-09-15T09:39:42.939Z,47.66
2022-09-15T09:42:18.727Z,47.95
2022-09-15T09:44:47.402Z,47.25
2022-09-15T09:47:15.668Z,46.35
2022-09-15T09:49:49.708Z,46.96
2022-09-15T09:52:39.920Z,48.29
2022-09-15T09:55:19.020Z,48.88
2022-09-15T09:57:46.119Z,49.33
2022-09-15T10:00:37.682Z,49.75
2022-09-15T10:03:21.538Z,49.34
2022-09-15T10:06:24.539Z,49.58
2022-09-15T10:08:58.326Z,48.87
2022-09-15T10:11:47.107Z,49.37
2022-09-15T10:14:21.121Z,49.54
2022-09-15T10:16:59.059Z,49.74
2022-09-15T10:19:28.939Z,49.90
2022-09-15T10:21:58.299Z,50.51
2022-09-15T10:24:28.159Z,50.70
2022-09-15T10:27:16.218Z,51.00
2022-09-15T10:29:43.780Z,50.79
2022-09-15T10:32:25.625Z,51.34
2022-09-15T10:35:06.700Z,46.86
2022-09-15T10:37:44.039Z,46.13
2022-09-15T10:40:34.702Z,49.09
2022-09-15T10:43:23.707Z,50.24
2022-09-15T10:46:02.003Z,51.12
2022-09-15T10:48:56.096Z,51.45
2022-09-15T10:51:58.761Z,51.37
2022-09-15T10:54:49.186Z,52.30
2022-09-15T10:57:38.115Z,53.28
2022-09-15T11:00:12.301Z,54.12
2022-09-15T11:13:53.413Z,58.29
2022-09-15T11:16:30.199Z,60.58
2022-09-15T11:19:29.631Z,61.50
2022-09-15T11:22:13.780Z,61.64
2022-09-15T11:24:44.200Z,61.29
2022-09-15T11:27:14.619Z,61.58
2022-09-15T11:30:17.786Z,61.27
2022-09-15T11:32:48.401Z,60.38
2022-09-15T11:35:37.241Z,60.15
2022-09-15T11:38:31.022Z,59.93
2022-09-15T11:41:27.539Z,59.66
2022-09-15T11:43:57.621Z,59.76
2022-09-15T11:46:51.835Z,60.86
2022-09-15T11:49:48.121Z,61.14
2022-09-15T11:52:41.481Z,61.15
2022-09-15T11:55:22.062Z,61.40
2022-09-15T11:58:21.798Z,61.78
2022-09-15T12:01:12.862Z,63.31
2022-09-15T12:04:04.326Z,65.34
2022-09-15T12:06:51.965Z,64.91
2022-09-15T12:09:20.721Z,63.72
2022-09-15T12:11:51.838Z,61.43
2022-09-15T12:14:30.759Z,58.79
2022-09-15T12:16:59.549Z,57.01
2022-09-15T12:19:52.559Z,56.14
2022-09-15T12:22:29.343Z,54.76
2022-09-15T12:25:04.719Z,52.42
2022-09-15T12:27:31.919Z,51.85
2022-09-15T12:30:00.681Z,50.10
2022-09-15T12:32:32.243Z,49.80
2022-09-15T12:35:10.208Z,50.20
2022-09-15T12:37:53.235Z,50.22
2022-09-15T12:40:41.942Z,50.46
2022-09-15T12:43:12.840Z,50.56
2022-09-15T12:45:43.260Z,51.03
2022-09-15T12:48:23.788Z,51.78
2022-09-15T12:51:04.373Z,52.24
2022-09-15T12:56:25.261Z,51.84
2022-09-15T12:58:54.140Z,51.48
2022-09-15T13:01:24.667Z,51.60
2022-09-15T13:03:54.076Z,50.93
2022-09-15T13:06:28.280Z,52.10
2022-09-15T13:09:01.603Z,52.62
2022-09-15T13:11:32.113Z,52.89
2022-09-15T13:14:07.929Z,52.06
2022-09-15T13:16:44.020Z,52.23
2022-09-15T13:19:19.540Z,52.00
2022-09-15T13:21:54.299Z,53.60
2022-09-15T13:24:30.699Z,54.22
2022-09-15T13:26:58.248Z,53.53
2022-09-15T13:29:29.041Z,53.46
2022-09-15T13:32:23.619Z,54.47
2022-09-15T13:35:20.440Z,55.44
2022-09-15T13:38:29.289Z,55.00
2022-09-15T13:41:17.140Z,54.75
2022-09-15T13:44:02.661Z,55.38
2022-09-15T13:46:57.780Z,55.64
2022-09-15T13:49:46.482Z,56.37
2022-09-15T13:52:47.021Z,56.37
2022-09-15T13:55:21.759Z,56.70
2022-09-15T14:00:52.102Z,55.50
2022-09-15T14:03:40.739Z,55.40
2022-09-15T14:06:12.663Z,56.28
2022-09-15T14:08:42.084Z,55.49
2022-09-15T14:11:16.027Z,54.36
2022-09-15T14:13:48.622Z,53.50
2022-09-15T14:16:36.979Z,52.33
2022-09-15T14:19:27.983Z,51.81
2022-09-15T14:21:58.505Z,51.87
2022-09-15T14:24:30.987Z,51.57
2022-09-15T14:27:09.062Z,51.50
2022-09-15T14:29:40.820Z,50.92
2022-09-15T14:32:15.322Z,50.85
2022-09-15T14:34:43.511Z,51.36
2022-09-15T14:37:27.825Z,50.78
2022-09-15T14:39:57.510Z,50.84
2022-09-15T14:42:44.940Z,52.14
2022-09-15T14:48:01.597Z,52.44
2022-09-15T14:50:33.304Z,52.76
2022-09-15T14:53:07.121Z,53.71
2022-09-15T14:55:55.762Z,53.63
2022-09-15T14:58:29.380Z,54.48
2022-09-15T15:00:59.474Z,54.65
2022-09-15T15:03:53.139Z,54.96
2022-09-15T15:06:31.127Z,55.42
2022-09-15T15:09:01.104Z,56.04
2022-09-15T15:11:31.062Z,56.33
2022-09-15T15:13:58.181Z,56.45
2022-09-15T15:16:31.117Z,56.80
2022-09-15T15:18:58.459Z,56.44
2022-09-15T15:21:41.919Z,56.90
2022-09-15T15:24:22.862Z,57.14
2022-09-15T15:26:50.808Z,57.62
2022-09-15T15:29:44.284Z,57.18
2022-09-15T15:32:17.874Z,58.28
2022-09-15T15:34:53.399Z,58.22
2022-09-15T15:37:32.762Z,59.13
2022-09-15T15:40:07.373Z,59.26
2022-09-15T15:42:34.899Z,58.81
2022-09-15T15:45:25.936Z,58.52
2022-09-15T15:47:53.540Z,58.87
2022-09-15T15:50:27.339Z,57.12
2022-09-15T15:52:55.260Z,56.15
2022-09-15T15:55:24.501Z,56.01
2022-09-15T15:57:53.867Z,56.44
2022-09-15T16:00:22.522Z,55.93
2022-09-15T16:02:51.467Z,55.82
2022-09-15T16:05:20.060Z,56.19
2022-09-15T16:07:50.659Z,56.06
2022-09-15T16:10:21.160Z,55.73
2022-09-15T16:12:48.319Z,56.13
2022-09-15T16:15:20.820Z,56.57
2022-09-15T16:17:48.722Z,56.93
2022-09-15T16:20:17.079Z,57.03
2022-09-15T16:22:44.527Z,57.29
2022-09-15T16:25:19.159Z,57.93
2022-09-15T16:27:46.339Z,57.69
2022-09-15T16:30:13.456Z,57.91
2022-09-15T16:32:41.519Z,57.93
2022-09-15T16:35:24.901Z,57.99
2022-09-15T16:37:51.947Z,57.80
2022-09-15T16:40:19.018Z,57.83
2022-09-15T16:42:47.989Z,58.04
2022-09-15T16:45:41.760Z,58.02
2022-09-15T16:48:10.341Z,57.82
2022-09-15T16:50:39.855Z,57.71
2022-09-15T16:53:21.679Z,57.91
2022-09-15T16:55:51.262Z,57.97
2022-09-15T16:58:20.299Z,58.05
2022-09-15T17:00:49.347Z,58.38
2022-09-15T17:03:19.340Z,58.53
2022-09-15T17:05:50.267Z,57.96
2022-09-15T17:08:27.462Z,58.53
2022-09-15T17:10:59.020Z,58.37
2022-09-15T17:13:30.342Z,59.84
2022-09-15T17:15:59.203Z,58.97
2022-09-15T17:18:27.401Z,58.60
2022-09-15T17:20:54.778Z,59.11
2022-09-15T17:23:27.983Z,59.07
2022-09-15T17:25:59.259Z,59.14
2022-09-15T17:28:29.407Z,59.52
2022-09-15T17:30:58.855Z,59.88
2022-09-15T17:33:27.080Z,60.04
2022-09-15T17:35:54.441Z,60.03
2022-09-15T17:38:22.199Z,59.99
2022-09-15T17:40:50.709Z,59.94
2022-09-15T17:43:19.840Z,59.80
2022-09-15T17:45:48.589Z,60.66
2022-09-15T17:48:16.624Z,61.27
2022-09-15T17:50:45.562Z,61.51
2022-09-15T17:53:18.780Z,61.56
2022-09-15T17:55:45.860Z,62.02
2022-09-15T17:58:13.220Z,61.93
2022-09-15T18:00:42.981Z,61.24
2022-09-15T18:03:31.001Z,61.70
2022-09-15T18:06:00.421Z,62.00
2022-09-15T18:08:28.141Z,62.46
2022-09-15T18:10:56.769Z,62.47
2022-09-15T18:13:27.427Z,62.55
2022-09-15T18:15:55.042Z,62.79
2022-09-15T18:18:28.541Z,62.53
2022-09-15T18:21:01.802Z,62.67
2022-09-15T18:23:30.741Z,62.46
2022-09-15T18:25:59.399Z,62.72
2022-09-15T18:28:28.818Z,63.18
2022-09-15T18:30:56.486Z,63.25
2022-09-15T18:33:25.643Z,63.10
2022-09-15T18:35:55.798Z,63.03
2022-09-15T18:38:23.479Z,62.78
2022-09-15T18:40:56.340Z,62.52
2022-09-15T18:43:26.583Z,62.28
2022-09-15T18:45:58.656Z,62.27
2022-09-15T18:48:26.002Z,61.95
2022-09-15T18:50:53.680Z,61.78
2022-09-15T18:53:22.407Z,61.56
2022-09-15T18:55:49.760Z,61.32
2022-09-15T18:58:17.919Z,61.13
2022-09-15T19:00:45.879Z,61.55
2022-09-15T19:03:14.456Z,61.43
2022-09-15T19:05:41.721Z,61.29
2022-09-15T19:08:09.500Z,61.20
2022-09-15T19:10:38.500Z,61.04
2022-09-15T19:13:05.780Z,60.55
2022-09-15T19:15:34.783Z,60.57
2022-09-15T19:18:02.320Z,60.10
2022-09-15T19:20:29.562Z,59.77
2022-09-15T19:22:57.842Z,60.35
2022-09-15T19:25:25.040Z,60.32
2022-09-15T19:27:52.281Z,60.62
2022-09-15T19:30:19.261Z,60.30
2022-09-15T19:32:46.568Z,60.25
2022-09-15T19:35:13.808Z,60.35
2022-09-15T19:37:44.979Z,60.11
2022-09-15T19:40:14.252Z,59.76
2022-09-15T19:42:43.413Z,59.13
2022-09-15T19:45:12.279Z,59.71
2022-09-15T19:47:40.719Z,60.18
2022-09-15T19:50:09.460Z,60.99
2022-09-15T19:52:36.558Z,60.54
2022-09-15T19:55:05.379Z,59.91
2022-09-15T19:57:32.459Z,60.81
2022-09-15T19:59:59.588Z,61.38
2022-09-15T20:02:26.617Z,62.41
2022-09-15T20:04:53.720Z,61.96
2022-09-15T20:07:20.865Z,63.95
2022-09-15T20:09:47.860Z,62.51
2022-09-15T20:12:15.222Z,64.32
2022-09-15T20:14:42.322Z,64.58
2022-09-15T20:17:09.309Z,65.28
2022-09-15T20:19:37.223Z,64.57
2022-09-15T20:22:04.622Z,64.75
2022-09-15T20:24:31.659Z,64.69
2022-09-15T20:26:59.479Z,64.94
2022-09-15T20:29:26.724Z,65.01
2022-09-15T20:31:54.279Z,64.84
2022-09-15T20:34:21.567Z,63.75
2022-09-15T20:36:49.162Z,64.49
2022-09-15T20:39:18.966Z,63.77
2022-09-15T20:41:46.188Z,64.38
2022-09-15T20:44:14.162Z,64.15
2022-09-15T20:46:41.491Z,63.87
2022-09-15T20:49:09.642Z,63.65
2022-09-15T20:51:36.739Z,63.67
2022-09-15T20:54:04.456Z,63.61
2022-09-15T20:56:35.292Z,63.46
2022-09-15T20:59:04.882Z,63.04
2022-09-15T21:01:37.263Z,62.45
2022-09-15T21:04:05.624Z,62.64
2022-09-15T21:06:33.443Z,62.56
2022-09-15T21:09:00.605Z,62.64
2022-09-15T21:11:29.283Z,62.37
2022-09-15T21:13:57.598Z,62.26
2022-09-15T21:16:28.019Z,62.20
2022-09-15T21:18:57.261Z,62.49
2022-09-15T21:21:26.610Z,62.29
2022-09-15T21:23:56.101Z,62.15
2022-09-15T21:26:26.421Z,62.15
2022-09-15T21:28:55.021Z,61.73
2022-09-15T21:31:27.978Z,61.84
2022-09-15T21:33:56.425Z,61.96
2022-09-15T21:36:28.699Z,62.10
2022-09-15T21:38:57.779Z,61.83
2022-09-15T21:41:27.553Z,62.07
2022-09-15T21:43:55.741Z,61.69
2022-09-15T21:46:25.738Z,61.93
2022-09-15T21:48:53.307Z,61.82
2022-09-15T21:51:25.044Z,61.35
2022-09-15T21:53:53.681Z,61.81
2022-09-15T21:56:22.088Z,61.93
2022-09-15T21:58:49.166Z,62.03
2022-09-15T22:01:28.238Z,62.59
2022-09-15T22:03:58.720Z,62.66
2022-09-15T22:06:30.459Z,63.07
2022-09-15T22:09:23.519Z,62.76
2022-09-15T22:11:50.559Z,63.12
2022-09-15T22:14:18.241Z,63.19
2022-09-15T22:16:45.417Z,63.63
2022-09-15T22:19:13.043Z,63.87
2022-09-15T22:21:42.229Z,63.87
2022-09-15T22:24:11.630Z,65.16
2022-09-15T22:26:39.583Z,64.12
2022-09-15T22:29:06.984Z,64.32
2022-09-15T22:31:34.286Z,64.60
2022-09-15T22:34:01.439Z,64.46
2022-09-15T22:36:30.963Z,64.49
2022-09-15T22:39:08.540Z,64.35
2022-09-15T22:41:39.860Z,63.87
2022-09-15T22:44:16.600Z,64.13
2022-09-15T22:46:43.617Z,63.43
2022-09-15T22:49:10.659Z,63.75
2022-09-15T22:51:37.740Z,63.64
2022-09-15T22:54:05.462Z,63.46
2022-09-15T22:56:32.602Z,63.71
2022-09-15T22:59:00.123Z,64.05
2022-09-15T23:01:30.193Z,64.30
2022-09-15T23:03:59.608Z,63.89
2022-09-15T23:06:29.313Z,64.06
2022-09-15T23:08:59.102Z,63.52
2022-09-15T23:11:28.014Z,62.57
2022-09-15T23:13:55.556Z,62.64
2022-09-15T23:16:24.449Z,62.36
2022-09-15T23:18:51.919Z,61.58
2022-09-15T23:21:19.672Z,61.08
2022-09-15T23:23:49.276Z,60.58
2022-09-15T23:26:18.393Z,60.87
2022-09-15T23:28:45.476Z,60.77
2022-09-15T23:31:13.368Z,60.72
2022-09-15T23:33:41.233Z,60.95
2022-09-15T23:36:13.773Z,60.33
2022-09-15T23:38:43.045Z,60.37
2022-09-15T23:41:11.452Z,59.61
2022-09-15T23:43:38.791Z,58.20
2022-09-15T23:46:06.511Z,58.10
2022-09-15T23:48:33.572Z,56.66
2022-09-15T23:51:00.962Z,56.48
2022-09-15T23:53:28.792Z,56.90
2022-09-15T23:55:55.971Z,57.40
2022-09-15T23:58:23.014Z,57.55
